createdAt,value
2023-01-31T06:39:03.664Z,0.96
2023-01-31T06:41:30.542Z,0.92
2023-01-31T06:44:01.956Z,0.87
2023-01-31T06:46:29.712Z,0.81
2023-01-31T06:48:57.076Z,0.77
2023-01-31T06:51:24.653Z,0.81
2023-01-31T06:53:53.332Z,0.85
2023-01-31T06:56:20.775Z,0.87
2023-01-31T06:58:48.051Z,0.95
2023-01-31T07:01:15.501Z,0.99
2023-01-31T07:03:44.889Z,0.95
2023-01-31T07:06:13.209Z,0.87
2023-01-31T07:08:51.506Z,0.86
2023-01-31T07:11:23.197Z,0.87
2023-01-31T07:13:57.461Z,0.93
2023-01-31T07:16:34.749Z,0.99
2023-01-31T07:19:01.769Z,0.97
2023-01-31T07:21:30.183Z,0.95
2023-01-31T07:24:01.978Z,0.99
2023-01-31T07:26:34.493Z,1.06
2023-01-31T07:29:03.254Z,1.13
2023-01-31T07:31:38.107Z,1.16
2023-01-31T07:34:10.015Z,1.17
2023-01-31T07:36:37.905Z,1.16
2023-01-31T07:39:05.992Z,1.17
2023-01-31T07:41:34.261Z,1.22
2023-01-31T07:44:12.314Z,1.29
2023-01-31T07:46:41.948Z,1.35
2023-01-31T07:49:15.834Z,1.38
2023-01-31T07:51:45.801Z,1.41
2023-01-31T07:54:16.729Z,1.43
2023-01-31T07:56:52.084Z,1.46
2023-01-31T07:59:23.769Z,1.51
2023-01-31T08:02:21.046Z,1.57
2023-01-31T08:04:52.353Z,1.64
2023-01-31T08:07:22.072Z,1.70
2023-01-31T08:09:56.439Z,1.76
2023-01-31T08:12:37.875Z,1.74
2023-01-31T08:15:15.352Z,1.75
2023-01-31T08:17:43.568Z,1.70
2023-01-31T08:20:17.492Z,1.68
2023-01-31T08:22:56.538Z,1.73
2023-01-31T08:25:30.582Z,1.79
2023-01-31T08:28:10.932Z,1.82
2023-01-31T08:30:42.912Z,1.83
2023-01-31T08:33:23.118Z,1.88
2023-01-31T08:36:34.823Z,1.86
2023-01-31T08:39:20.241Z,1.80
2023-01-31T08:41:51.182Z,1.83
2023-01-31T08:44:19.524Z,1.88
2023-01-31T08:46:50.632Z,1.94
2023-01-31T08:49:25.497Z,1.99
2023-01-31T08:51:53.398Z,2.01
2023-01-31T08:54:21.918Z,2.04
2023-01-31T08:56:54.347Z,2.06
2023-01-31T08:59:21.606Z,2.08
2023-01-31T09:01:51.557Z,2.10
2023-01-31T09:04:23.515Z,2.13
2023-01-31T09:06:51.895Z,2.16
2023-01-31T09:09:22.090Z,2.18
2023-01-31T09:11:51.152Z,2.19
2023-01-31T09:14:19.322Z,2.20
2023-01-31T09:16:46.495Z,2.22
2023-01-31T09:19:13.811Z,2.22
2023-01-31T09:21:42.440Z,2.23
2023-01-31T09:24:11.582Z,2.28
2023-01-31T09:26:38.636Z,2.32
2023-01-31T09:29:06.257Z,2.35
2023-01-31T09:31:35.247Z,2.36
2023-01-31T09:34:07.683Z,2.40
2023-01-31T09:36:35.451Z,2.44
2023-01-31T09:39:07.651Z,2.46
2023-01-31T09:41:47.483Z,2.47
2023-01-31T09:44:17.503Z,2.48
2023-01-31T09:46:50.158Z,2.51
2023-01-31T09:49:23.562Z,2.53
2023-01-31T09:52:00.095Z,2.51
2023-01-31T09:54:33.204Z,2.42
2023-01-31T09:57:13.082Z,2.40
2023-01-31T09:59:42.458Z,2.34
2023-01-31T10:02:23.205Z,2.32
2023-01-31T10:05:22.057Z,2.37
2023-01-31T10:07:53.608Z,2.42
2023-01-31T10:11:03.098Z,2.47
2023-01-31T10:13:54.001Z,2.52
2023-01-31T10:16:45.328Z,2.55
2023-01-31T10:19:38.475Z,2.59
2023-01-31T10:22:10.027Z,2.64
2023-01-31T10:24:53.580Z,2.66
2023-01-31T10:27:40.265Z,2.69
2023-01-31T10:30:18.535Z,2.69
2023-01-31T10:32:48.586Z,2.73
2023-01-31T10:35:28.095Z,2.77
2023-01-31T10:38:09.521Z,2.73
2023-01-31T10:40:39.372Z,2.63
2023-01-31T10:43:20.602Z,2.64
2023-01-31T10:45:50.800Z,2.71
2023-01-31T10:48:27.115Z,2.77
2023-01-31T10:51:16.387Z,2.82
2023-01-31T10:53:50.619Z,2.86
2023-01-31T10:56:41.871Z,2.88
2023-01-31T10:59:20.389Z,2.89
2023-01-31T11:01:51.838Z,2.93
2023-01-31T11:04:38.154Z,2.97
2023-01-31T11:07:09.942Z,2.98
2023-01-31T11:09:42.565Z,3.01
2023-01-31T11:12:12.363Z,3.01
2023-01-31T11:14:44.303Z,3.00
2023-01-31T11:17:16.840Z,2.97
2023-01-31T11:19:49.596Z,2.97
2023-01-31T11:22:30.952Z,2.97
2023-01-31T11:24:59.261Z,2.98
2023-01-31T11:27:41.375Z,2.96
2023-01-31T11:30:27.535Z,2.93
2023-01-31T11:32:55.430Z,2.89
2023-01-31T11:35:26.605Z,2.84
2023-01-31T11:38:16.442Z,2.83
2023-01-31T11:40:45.217Z,2.82
2023-01-31T11:43:26.562Z,2.80
2023-01-31T11:45:59.451Z,2.78
2023-01-31T11:48:44.416Z,2.79
2023-01-31T11:51:27.553Z,2.81
2023-01-31T11:53:59.721Z,2.84
2023-01-31T11:56:30.464Z,2.84
2023-01-31T11:59:03.682Z,2.83
2023-01-31T12:01:32.438Z,2.81
2023-01-31T12:04:05.876Z,2.80
2023-01-31T12:06:43.801Z,2.81
2023-01-31T12:09:23.478Z,2.76
2023-01-31T12:12:07.580Z,2.74
2023-01-31T12:14:49.633Z,2.77
2023-01-31T12:17:20.005Z,2.81
2023-01-31T12:20:33.490Z,2.83
2023-01-31T12:23:23.769Z,2.87
2023-01-31T12:26:16.705Z,2.88
2023-01-31T12:32:54.398Z,2.84
2023-01-31T12:36:12.273Z,2.83
2023-01-31T12:39:59.335Z,2.84
2023-01-31T12:43:31.776Z,2.85
2023-01-31T12:46:38.986Z,2.85
2023-01-31T12:49:42.453Z,2.80
2023-01-31T12:52:56.026Z,2.75
2023-01-31T12:55:52.936Z,2.74
2023-01-31T12:59:20.420Z,2.76
2023-01-31T13:02:34.043Z,2.78
2023-01-31T13:05:27.742Z,2.79
2023-01-31T13:08:17.520Z,2.78
2023-01-31T13:11:08.495Z,2.80
2023-01-31T13:13:47.727Z,2.79
2023-01-31T13:16:37.854Z,2.80
2023-01-31T13:19:44.631Z,2.82
2023-01-31T13:22:51.212Z,2.83
2023-01-31T13:25:53.493Z,2.81
2023-01-31T13:28:30.688Z,2.84
2023-01-31T13:31:15.482Z,2.89
2023-01-31T13:34:04.707Z,2.95
2023-01-31T13:42:47.476Z,3.11
2023-01-31T13:45:28.042Z,3.04
2023-01-31T13:48:33.026Z,3.03
2023-01-31T13:51:19.056Z,3.02
2023-01-31T13:54:07.586Z,2.95
2023-01-31T13:56:39.540Z,2.91
2023-01-31T13:59:11.029Z,2.92
2023-01-31T14:01:49.811Z,2.94
2023-01-31T14:04:26.169Z,2.95
2023-01-31T14:06:54.907Z,2.94
2023-01-31T14:09:31.239Z,2.94
2023-01-31T14:12:22.115Z,2.92
2023-01-31T14:15:01.207Z,2.86
2023-01-31T14:17:35.093Z,2.83
2023-01-31T14:20:06.800Z,2.73
2023-01-31T14:22:42.464Z,2.69
2023-01-31T14:25:13.123Z,2.72
2023-01-31T14:28:04.487Z,2.76
2023-01-31T14:30:43.624Z,2.79
2023-01-31T14:33:11.686Z,2.80
2023-01-31T14:36:01.839Z,2.81
2023-01-31T14:38:37.177Z,2.82
2023-01-31T14:41:57.167Z,2.82
2023-01-31T14:44:54.549Z,2.82
2023-01-31T14:48:02.607Z,2.83
2023-01-31T14:51:03.983Z,2.85
2023-01-31T14:53:37.357Z,2.79
2023-01-31T14:56:59.488Z,2.70
2023-01-31T15:00:04.747Z,2.67
2023-01-31T15:03:08.193Z,2.73
2023-01-31T15:06:46.929Z,2.80
2023-01-31T15:09:56.773Z,2.86
2023-01-31T15:45:37.719Z,3.07
2023-01-31T15:48:16.210Z,3.08
2023-01-31T15:51:05.259Z,3.10
2023-01-31T15:53:43.001Z,3.14
2023-01-31T15:56:22.617Z,3.19
2023-01-31T15:59:02.435Z,3.20
2023-01-31T16:02:23.295Z,3.20
2023-01-31T16:04:56.238Z,3.17
2023-01-31T16:07:31.910Z,3.14
2023-01-31T16:10:12.192Z,3.13
2023-01-31T16:12:49.728Z,3.11
2023-01-31T16:15:36.896Z,3.11
2023-01-31T16:18:54.129Z,3.12
2023-01-31T16:25:00.275Z,3.14
2023-01-31T16:28:08.116Z,3.13
2023-01-31T16:31:09.892Z,3.13
2023-01-31T16:33:58.035Z,3.12
2023-01-31T16:36:48.619Z,3.12
2023-01-31T16:43:11.929Z,3.20
2023-01-31T16:46:05.177Z,3.19
2023-01-31T16:49:13.503Z,3.19
2023-01-31T16:52:00.165Z,3.13
2023-01-31T16:54:54.825Z,3.09
2023-01-31T16:57:40.664Z,2.99
2023-01-31T17:01:05.889Z,2.96
2023-01-31T17:04:53.511Z,2.97
2023-01-31T17:07:32.242Z,3.00
2023-01-31T17:10:09.743Z,3.02
2023-01-31T17:12:47.843Z,2.99
2023-01-31T17:15:24.880Z,2.89
2023-01-31T17:18:11.915Z,2.76
2023-01-31T17:23:42.413Z,2.69
2023-01-31T17:26:21.789Z,2.77
2023-01-31T17:29:00.838Z,2.85
2023-01-31T17:31:43.262Z,2.91
2023-01-31T17:34:46.240Z,2.93
2023-01-31T17:37:30.305Z,2.85
2023-01-31T17:40:48.380Z,2.74
2023-01-31T17:43:20.790Z,2.74
2023-01-31T17:45:47.643Z,2.76
2023-01-31T17:48:25.747Z,2.78
2023-01-31T17:50:55.106Z,2.80
2023-01-31T17:53:23.601Z,2.82
2023-01-31T17:55:50.325Z,2.85
2023-01-31T17:58:20.280Z,2.86
2023-01-31T18:00:47.427Z,2.89
2023-01-31T18:03:19.797Z,2.92
2023-01-31T18:05:48.525Z,2.94
2023-01-31T18:08:17.709Z,2.95
2023-01-31T18:10:45.739Z,2.97
2023-01-31T18:13:14.674Z,2.95
